Hoxeyville, Michigan
Current Conditions -  °F | °C
As of 5:34 PM on Sunday 21 Dec 2014 (Local Time) from KCAD Reporting Station
Overcast Overcast  
Wind Chill: 22°   Ceiling: 1500
Heat Index: 30°   Visibility: 7mi
Dew Point: 27°   Wind: 9mph
Humidity: 86%   Direction: 140°SE
Pressure: 30.1"   Gusts: NA
Location:  44.2433°N, 85.5328°W
Report Text: KCAD 212234Z AUTO 14008KT 7SM OVC015 M01/M03 A3010 RMK AO2 T10101030
Loading
Personal Weather Stations






























Interactive Weather Map New forecast layout! Learn more

10-Day Weather Forecast

Advertisements
Track Severe Weather on mobile